createdAt,value
2022-07-26T00:00:02.958Z,100605.75
2022-07-26T00:02:30.597Z,100607.69
2022-07-26T00:04:57.103Z,100600.66
2022-07-26T00:07:23.565Z,100599.50
2022-07-26T00:09:50.062Z,100596.88
2022-07-26T00:12:16.876Z,100604.63
2022-07-26T00:14:43.519Z,100606.34
2022-07-26T00:17:10.097Z,100605.09
2022-07-26T00:19:36.629Z,100609.00
2022-07-26T00:22:22.043Z,100613.69
2022-07-26T00:24:48.526Z,100612.97
2022-07-26T00:27:14.996Z,100606.66
2022-07-26T00:29:41.550Z,100612.31
2022-07-26T00:32:08.051Z,100608.97
2022-07-26T00:34:34.612Z,100606.53
2022-07-26T00:37:01.390Z,100605.19
2022-07-26T00:39:28.914Z,100609.56
2022-07-26T00:41:55.673Z,100613.00
2022-07-26T00:44:22.195Z,100610.31
2022-07-26T00:46:48.851Z,100614.78
2022-07-26T00:49:15.448Z,100611.97
2022-07-26T00:51:42.400Z,100620.09
2022-07-26T00:54:13.009Z,100612.28
2022-07-26T00:56:40.010Z,100613.53
2022-07-26T00:59:06.852Z,100611.91
2022-07-26T01:01:33.660Z,100613.28
2022-07-26T01:04:00.302Z,100614.66
2022-07-26T01:06:27.450Z,100604.22
2022-07-26T01:08:54.526Z,100606.94
2022-07-26T01:11:21.026Z,100617.31
2022-07-26T01:13:49.061Z,100609.03
2022-07-26T01:16:15.932Z,100607.16
2022-07-26T01:18:42.804Z,100595.81
2022-07-26T01:21:13.955Z,100595.03
2022-07-26T01:23:41.960Z,100606.03
2022-07-26T01:26:08.627Z,100606.63
2022-07-26T01:28:39.876Z,100605.09
2022-07-26T01:31:07.652Z,100602.91
2022-07-26T01:33:34.855Z,100599.84
2022-07-26T01:36:01.602Z,100600.72
2022-07-26T01:38:28.412Z,100587.97
2022-07-26T01:40:54.953Z,100589.00
2022-07-26T01:43:21.463Z,100590.63
2022-07-26T01:45:48.136Z,100586.94
2022-07-26T01:48:14.816Z,100596.66
2022-07-26T01:50:41.382Z,100594.81
2022-07-26T01:53:07.893Z,100586.84
2022-07-26T01:55:34.995Z,100595.44
2022-07-26T01:58:01.528Z,100587.88
2022-07-26T02:00:29.116Z,100583.16
2022-07-26T02:02:55.801Z,100594.38
2022-07-26T02:05:22.405Z,100591.84
2022-07-26T02:07:48.971Z,100592.53
2022-07-26T02:10:17.161Z,100597.44
2022-07-26T02:12:44.279Z,100595.56
2022-07-26T02:15:11.920Z,100589.47
2022-07-26T02:17:38.595Z,100593.44
2022-07-26T02:20:05.834Z,100595.28
2022-07-26T02:22:32.297Z,100596.84
2022-07-26T02:25:04.487Z,100604.38
2022-07-26T02:27:31.678Z,100601.16
2022-07-26T02:29:58.164Z,100603.13
2022-07-26T02:32:24.648Z,100601.38
2022-07-26T02:34:51.128Z,100611.38
2022-07-26T02:37:17.582Z,100611.16
2022-07-26T02:39:44.103Z,100604.69
2022-07-26T02:42:10.797Z,100613.13
2022-07-26T02:44:37.383Z,100609.75
2022-07-26T02:47:03.902Z,100614.69
2022-07-26T02:49:30.391Z,100611.06
2022-07-26T02:51:57.400Z,100605.50
2022-07-26T02:54:24.031Z,100613.09
2022-07-26T02:56:50.554Z,100624.06
2022-07-26T02:59:17.154Z,100617.25
2022-07-26T03:01:43.697Z,100615.94
2022-07-26T03:04:10.623Z,100620.13
2022-07-26T03:06:37.574Z,100622.41
2022-07-26T03:09:04.654Z,100626.81
2022-07-26T03:11:31.132Z,100635.31
2022-07-26T03:13:57.696Z,100635.78
2022-07-26T03:16:29.250Z,100633.69
2022-07-26T03:18:56.363Z,100632.63
2022-07-26T03:21:22.935Z,100634.31
2022-07-26T03:23:49.509Z,100629.56
2022-07-26T03:26:16.126Z,100630.16
2022-07-26T03:28:44.473Z,100635.19
2022-07-26T03:31:12.931Z,100636.31
2022-07-26T03:33:40.653Z,100633.78
2022-07-26T03:36:11.558Z,100637.34
2022-07-26T03:38:39.960Z,100642.72
2022-07-26T03:41:06.655Z,100642.06
2022-07-26T03:43:36.283Z,100644.50
2022-07-26T03:46:03.199Z,100638.78
2022-07-26T03:48:31.123Z,100641.56
2022-07-26T03:50:57.905Z,100638.53
2022-07-26T03:53:24.437Z,100628.16
2022-07-26T03:56:10.312Z,100629.16
2022-07-26T03:58:36.836Z,100635.13
2022-07-26T04:01:04.060Z,100643.16
2022-07-26T04:03:30.657Z,100650.34
2022-07-26T04:05:57.605Z,100648.22
2022-07-26T04:08:24.794Z,100646.06
2022-07-26T04:10:51.478Z,100653.25
2022-07-26T04:13:19.208Z,100643.38
2022-07-26T04:15:46.146Z,100654.59
2022-07-26T04:18:14.214Z,100654.81
2022-07-26T04:20:41.065Z,100661.53
2022-07-26T04:23:11.623Z,100660.78
2022-07-26T04:25:41.072Z,100665.38
2022-07-26T04:28:08.682Z,100668.38
2022-07-26T04:30:35.423Z,100665.16
2022-07-26T04:33:02.127Z,100651.34
2022-07-26T04:35:28.609Z,100661.00
2022-07-26T04:37:55.210Z,100667.31
2022-07-26T04:40:23.556Z,100657.56
2022-07-26T04:42:51.536Z,100663.69
2022-07-26T04:45:18.492Z,100667.78
2022-07-26T04:47:45.881Z,100667.34
2022-07-26T04:50:16.230Z,100663.25
2022-07-26T04:52:42.913Z,100665.63
2022-07-26T04:55:10.676Z,100670.75
2022-07-26T04:57:37.461Z,100667.91
2022-07-26T05:00:21.540Z,100669.91
2022-07-26T05:02:50.198Z,100677.00
2022-07-26T05:05:16.837Z,100669.47
2022-07-26T05:07:47.417Z,100671.31
2022-07-26T05:10:15.479Z,100680.72
2022-07-26T05:12:42.090Z,100672.84
2022-07-26T05:15:13.829Z,100681.53
2022-07-26T05:17:42.743Z,100675.31
2022-07-26T05:20:11.062Z,100679.91
2022-07-26T05:22:37.925Z,100681.44
2022-07-26T05:25:05.173Z,100682.94
2022-07-26T05:27:31.789Z,100678.16
2022-07-26T05:29:58.490Z,100684.09
2022-07-26T05:32:25.185Z,100685.03
2022-07-26T05:34:51.673Z,100688.53
2022-07-26T05:37:18.188Z,100697.16
2022-07-26T05:39:44.675Z,100693.75
2022-07-26T05:42:11.297Z,100709.28
2022-07-26T05:44:42.666Z,100706.34
2022-07-26T05:47:09.776Z,100717.84
2022-07-26T05:49:40.071Z,100723.28
2022-07-26T05:52:07.913Z,100715.53
2022-07-26T05:54:34.606Z,100732.88
2022-07-26T05:57:01.169Z,100734.13
2022-07-26T05:59:27.950Z,100739.06
2022-07-26T06:01:56.595Z,100738.94
2022-07-26T06:04:25.974Z,100757.63
2022-07-26T06:06:54.826Z,100754.59
2022-07-26T06:09:22.460Z,100760.41
2022-07-26T06:11:48.951Z,100775.84
2022-07-26T06:14:15.550Z,100772.31
2022-07-26T06:16:42.179Z,100761.69
2022-07-26T06:19:08.725Z,100769.94
2022-07-26T06:21:35.301Z,100776.41
2022-07-26T06:24:01.883Z,100773.31
2022-07-26T06:26:28.392Z,100770.06
2022-07-26T06:28:54.902Z,100776.13
2022-07-26T06:31:21.663Z,100776.44
2022-07-26T06:33:48.212Z,100786.81
2022-07-26T06:36:14.759Z,100779.53
2022-07-26T06:38:41.310Z,100789.72
2022-07-26T06:41:07.921Z,100791.72
2022-07-26T06:43:34.417Z,100799.44
2022-07-26T06:46:01.130Z,100797.28
2022-07-26T06:48:27.805Z,100799.25
2022-07-26T06:50:55.637Z,100800.78
2022-07-26T06:53:22.177Z,100807.75
2022-07-26T06:55:48.700Z,100811.34
2022-07-26T06:58:15.163Z,100806.09
2022-07-26T07:00:41.774Z,100806.38
2022-07-26T07:03:08.278Z,100810.63
2022-07-26T07:05:34.775Z,100818.94
2022-07-26T07:08:01.247Z,100832.09
2022-07-26T07:10:29.132Z,100835.81
2022-07-26T07:12:56.108Z,100839.94
2022-07-26T07:15:22.590Z,100840.63
2022-07-26T07:17:51.592Z,100838.09
2022-07-26T07:20:18.237Z,100838.34
2022-07-26T07:22:44.920Z,100836.53
2022-07-26T07:25:11.409Z,100852.47
2022-07-26T07:27:41.502Z,100850.56
2022-07-26T07:30:10.861Z,100857.72
2022-07-26T07:32:37.535Z,100852.84
2022-07-26T07:35:08.030Z,100866.00
2022-07-26T07:37:53.907Z,100854.91
2022-07-26T07:40:21.280Z,100857.75
2022-07-26T07:42:47.889Z,100867.69
2022-07-26T07:45:14.919Z,100863.00
2022-07-26T07:47:41.593Z,100879.13
2022-07-26T07:50:08.715Z,100881.59
2022-07-26T07:52:35.221Z,100878.38
2022-07-26T07:55:36.105Z,100879.28
2022-07-26T07:57:48.193Z,100884.13
2022-07-26T08:00:16.795Z,100895.50
2022-07-26T08:02:46.018Z,100910.72
2022-07-26T08:05:14.073Z,100914.91
2022-07-26T08:07:41.775Z,100921.34
2022-07-26T08:10:11.460Z,100920.41
2022-07-26T08:12:37.971Z,100929.75
2022-07-26T08:15:07.698Z,100925.66
2022-07-26T08:17:35.547Z,100909.13
2022-07-26T08:20:08.606Z,100915.94
2022-07-26T08:22:37.970Z,100927.59
2022-07-26T08:25:05.313Z,100918.94
2022-07-26T08:27:40.311Z,100921.63
2022-07-26T08:30:07.917Z,100926.16
2022-07-26T08:32:35.458Z,100922.63
2022-07-26T08:35:17.973Z,100932.16
2022-07-26T08:37:46.443Z,100937.63
2022-07-26T08:40:13.059Z,100934.75
2022-07-26T08:42:39.643Z,100940.19
2022-07-26T08:45:06.995Z,100937.41
2022-07-26T08:47:40.070Z,100940.47
2022-07-26T08:50:12.801Z,100950.53
2022-07-26T08:52:42.590Z,100974.69
2022-07-26T08:55:09.839Z,100976.19
2022-07-26T08:57:36.575Z,100983.53
2022-07-26T09:00:21.970Z,100975.69
2022-07-26T09:02:48.990Z,100993.25
2022-07-26T09:05:18.708Z,100992.91
2022-07-26T09:07:45.343Z,100997.50
2022-07-26T09:10:14.343Z,101001.28
2022-07-26T09:12:41.545Z,100994.50
2022-07-26T09:15:18.306Z,101000.22
2022-07-26T09:17:46.929Z,101007.41
2022-07-26T09:20:17.172Z,101007.69
2022-07-26T09:23:06.251Z,101005.69
2022-07-26T09:25:38.490Z,101005.75
2022-07-26T09:28:22.031Z,101011.41
2022-07-26T09:30:53.378Z,101026.25
2022-07-26T09:33:19.923Z,101030.69
2022-07-26T09:36:01.712Z,101028.31
2022-07-26T09:38:44.317Z,101025.41
2022-07-26T09:41:37.194Z,101025.84
2022-07-26T09:44:20.415Z,101025.41
2022-07-26T09:46:58.523Z,101026.47
2022-07-26T09:49:29.624Z,101019.19
2022-07-26T09:52:15.343Z,101023.97
2022-07-26T09:54:41.829Z,101020.22
2022-07-26T09:57:08.368Z,101022.03
2022-07-26T09:59:34.860Z,101027.50
2022-07-26T10:02:01.547Z,101045.88
2022-07-26T10:04:28.284Z,101053.97
2022-07-26T10:06:55.805Z,101057.84
2022-07-26T10:09:25.604Z,101073.50
2022-07-26T10:12:03.864Z,101069.38
2022-07-26T10:14:33.479Z,101080.84
2022-07-26T10:17:00.914Z,101067.78
2022-07-26T10:19:45.740Z,101071.03
2022-07-26T10:22:30.696Z,101070.97
2022-07-26T10:25:18.471Z,101083.16
2022-07-26T10:27:51.978Z,101079.53
2022-07-26T10:30:18.578Z,101077.38
2022-07-26T10:32:54.120Z,101076.66
2022-07-26T10:35:43.263Z,101065.91
2022-07-26T10:38:15.151Z,101068.56
2022-07-26T10:41:06.285Z,101068.94
2022-07-26T10:43:42.498Z,101075.03
2022-07-26T10:46:18.636Z,101072.38
2022-07-26T10:49:06.578Z,101079.94
2022-07-26T10:51:41.209Z,101094.09
2022-07-26T10:54:10.182Z,101092.75
2022-07-26T10:56:38.556Z,101076.91
2022-07-26T10:59:05.796Z,101080.97
2022-07-26T11:01:39.550Z,101071.75
2022-07-26T11:04:08.451Z,101086.66
2022-07-26T11:06:35.334Z,101086.66
2022-07-26T11:09:10.375Z,101089.34
2022-07-26T11:11:36.840Z,101100.22
2022-07-26T11:14:08.695Z,101099.72
2022-07-26T11:16:43.817Z,101094.09
2022-07-26T11:19:20.453Z,101105.34
2022-07-26T11:21:58.907Z,101099.88
2022-07-26T11:24:26.801Z,101096.97
2022-07-26T11:26:53.776Z,101114.88
2022-07-26T11:29:38.167Z,101112.06
2022-07-26T11:32:18.545Z,101120.78
2022-07-26T11:34:45.970Z,101111.81
2022-07-26T11:37:12.897Z,101122.16
2022-07-26T11:39:39.912Z,101122.41
2022-07-26T11:42:13.081Z,101113.59
2022-07-26T11:44:43.758Z,101123.09
2022-07-26T11:47:12.570Z,101113.03
2022-07-26T11:52:31.109Z,101131.53
2022-07-26T11:54:57.696Z,101126.22
2022-07-26T11:57:29.472Z,101129.69
2022-07-26T11:59:56.003Z,101137.41
2022-07-26T12:02:22.654Z,101124.44
2022-07-26T12:04:49.394Z,101137.38
2022-07-26T12:07:18.654Z,101130.38
2022-07-26T12:09:54.322Z,101140.81
2022-07-26T12:12:29.436Z,101132.19
2022-07-26T12:15:01.865Z,101141.72
2022-07-26T12:17:34.636Z,101143.16
2022-07-26T12:20:15.250Z,101148.91
2022-07-26T12:22:58.370Z,101142.44
2022-07-26T12:25:29.025Z,101152.84
2022-07-26T12:27:56.082Z,101151.84
2022-07-26T12:30:23.763Z,101153.91
2022-07-26T12:32:54.813Z,101140.91
2022-07-26T12:35:33.651Z,101149.72
2022-07-26T12:38:00.543Z,101148.72
2022-07-26T12:40:28.748Z,101157.22
2022-07-26T12:43:01.154Z,101149.09
2022-07-26T12:45:30.843Z,101151.41
2022-07-26T12:47:58.709Z,101164.22
2022-07-26T12:50:27.110Z,101155.78
2022-07-26T12:53:01.395Z,101149.97
2022-07-26T12:55:27.944Z,101139.47
2022-07-26T12:57:55.894Z,101140.56
2022-07-26T13:00:24.346Z,101141.88
2022-07-26T13:02:52.895Z,101141.84
2022-07-26T13:05:19.553Z,101142.63
2022-07-26T13:07:46.273Z,101150.81
2022-07-26T13:12:59.477Z,101158.31
2022-07-26T13:15:35.934Z,101160.19
2022-07-26T13:18:05.990Z,101165.72
2022-07-26T13:20:32.751Z,101163.78
2022-07-26T13:22:59.297Z,101170.28
2022-07-26T13:25:26.108Z,101169.03
2022-07-26T13:27:57.319Z,101175.06
2022-07-26T13:30:23.921Z,101173.88
2022-07-26T13:32:50.484Z,101172.56
2022-07-26T13:35:17.011Z,101163.69
2022-07-26T13:37:43.520Z,101171.63
2022-07-26T13:40:10.514Z,101166.22
2022-07-26T13:42:38.176Z,101163.22
2022-07-26T13:45:06.466Z,101163.13
2022-07-26T13:47:33.051Z,101182.00
2022-07-26T13:49:59.604Z,101182.75
2022-07-26T13:52:26.122Z,101172.84
2022-07-26T13:54:53.149Z,101181.06
2022-07-26T13:57:19.662Z,101197.91
2022-07-26T13:59:46.151Z,101187.19
2022-07-26T14:02:12.814Z,101185.56
2022-07-26T14:04:39.358Z,101194.91
2022-07-26T14:07:05.866Z,101185.94
2022-07-26T14:09:32.353Z,101207.34
2022-07-26T14:11:58.986Z,101192.41
2022-07-26T14:14:25.597Z,101199.00
2022-07-26T14:16:52.134Z,101200.94
2022-07-26T14:19:18.795Z,101201.78
2022-07-26T14:21:58.883Z,101212.88
2022-07-26T14:24:27.212Z,101204.66
2022-07-26T14:26:58.475Z,101220.03
2022-07-26T14:29:25.906Z,101229.72
2022-07-26T14:31:53.050Z,101236.97
2022-07-26T14:34:19.693Z,101228.34
2022-07-26T14:36:46.308Z,101229.69
2022-07-26T14:39:12.794Z,101235.06
2022-07-26T14:41:39.654Z,101241.41
2022-07-26T14:44:06.550Z,101240.84
2022-07-26T14:46:33.238Z,101226.72
2022-07-26T14:48:59.798Z,101236.72
2022-07-26T14:51:26.378Z,101234.91
2022-07-26T14:53:52.896Z,101238.47
2022-07-26T14:56:19.366Z,101252.91
2022-07-26T14:58:45.895Z,101260.50
2022-07-26T15:01:12.472Z,101257.81
2022-07-26T15:03:39.060Z,101263.28
2022-07-26T15:06:05.545Z,101255.53
2022-07-26T15:08:32.121Z,101250.59
2022-07-26T15:10:58.685Z,101267.63
2022-07-26T15:13:25.323Z,101263.25
2022-07-26T15:15:52.078Z,101253.09
2022-07-26T15:18:18.664Z,101259.44
2022-07-26T15:20:45.176Z,101259.72
2022-07-26T15:23:14.992Z,101267.00
2022-07-26T15:25:41.502Z,101258.50
2022-07-26T15:28:08.349Z,101266.97
2022-07-26T15:30:35.438Z,101263.75
2022-07-26T15:33:02.190Z,101264.97
2022-07-26T15:35:29.966Z,101263.34
2022-07-26T15:37:57.578Z,101271.91
2022-07-26T15:40:24.583Z,101269.16
2022-07-26T15:42:53.036Z,101255.91
2022-07-26T15:45:20.927Z,101262.13
2022-07-26T15:48:05.523Z,101265.44
2022-07-26T15:50:36.185Z,101266.28
2022-07-26T15:53:02.797Z,101264.81
2022-07-26T15:55:29.287Z,101268.41
2022-07-26T15:57:55.838Z,101265.94
2022-07-26T16:00:22.311Z,101268.59
2022-07-26T16:02:48.834Z,101264.72
2022-07-26T16:05:15.947Z,101262.34
2022-07-26T16:07:44.754Z,101267.22
2022-07-26T16:10:12.932Z,101265.06
2022-07-26T16:12:40.631Z,101270.34
2022-07-26T16:15:09.053Z,101273.97
2022-07-26T16:17:36.110Z,101271.63
2022-07-26T16:20:02.864Z,101270.16
2022-07-26T16:22:30.159Z,101285.56
2022-07-26T16:24:56.625Z,101284.63
2022-07-26T16:27:23.226Z,101279.47
2022-07-26T16:29:52.524Z,101290.50
2022-07-26T16:32:21.337Z,101285.81
2022-07-26T16:34:48.252Z,101286.59
2022-07-26T16:37:14.973Z,101283.28
2022-07-26T16:39:41.484Z,101285.47
2022-07-26T16:42:08.023Z,101291.72
2022-07-26T16:44:36.171Z,101287.88
2022-07-26T16:47:04.569Z,101291.47
2022-07-26T16:49:31.319Z,101288.63
2022-07-26T16:51:57.975Z,101294.09
2022-07-26T16:54:25.286Z,101290.63
2022-07-26T16:56:51.791Z,101289.91
2022-07-26T16:59:18.507Z,101287.94
2022-07-26T17:01:45.428Z,101285.50
2022-07-26T17:04:11.980Z,101285.22
2022-07-26T17:06:38.601Z,101288.31
2022-07-26T17:09:05.462Z,101279.91
2022-07-26T17:11:31.942Z,101286.97
2022-07-26T17:13:59.461Z,101280.53
2022-07-26T17:16:26.026Z,101295.97
2022-07-26T17:18:53.853Z,101290.69
2022-07-26T17:21:21.390Z,101282.34
2022-07-26T17:23:48.801Z,101294.28
2022-07-26T17:26:16.424Z,101286.28
2022-07-26T17:28:43.110Z,101280.94
2022-07-26T17:31:09.813Z,101278.75
2022-07-26T17:33:36.326Z,101289.63
2022-07-26T17:36:22.379Z,101291.97
2022-07-26T17:38:49.119Z,101298.66
2022-07-26T17:41:17.578Z,101288.72
2022-07-26T17:43:45.183Z,101293.41
2022-07-26T17:46:11.877Z,101298.00
2022-07-26T17:48:39.057Z,101307.88
2022-07-26T17:51:05.732Z,101308.59
2022-07-26T17:53:34.595Z,101307.88
2022-07-26T17:56:02.063Z,101312.34
2022-07-26T17:58:28.617Z,101323.56
2022-07-26T18:00:55.167Z,101310.81
2022-07-26T18:03:23.154Z,101312.38
2022-07-26T18:05:51.064Z,101314.81
2022-07-26T18:08:18.071Z,101304.53
2022-07-26T18:10:50.590Z,101309.53
2022-07-26T18:13:17.818Z,101317.22
2022-07-26T18:15:44.637Z,101313.88
2022-07-26T18:18:11.221Z,101307.69
2022-07-26T18:20:37.886Z,101310.47
2022-07-26T18:23:04.546Z,101311.78
2022-07-26T18:25:31.074Z,101314.72
2022-07-26T18:27:57.562Z,101306.75
2022-07-26T18:30:24.820Z,101307.56
2022-07-26T18:32:51.416Z,101310.94
2022-07-26T18:35:18.491Z,101301.41
2022-07-26T18:37:46.935Z,101302.22
2022-07-26T18:40:13.471Z,101306.09
2022-07-26T18:42:40.545Z,101306.88
2022-07-26T18:45:07.702Z,101308.47
2022-07-26T18:47:34.691Z,101307.69
2022-07-26T18:50:01.178Z,101306.88
2022-07-26T18:52:32.568Z,101308.69
2022-07-26T18:55:01.612Z,101312.38
2022-07-26T18:57:28.121Z,101318.28
2022-07-26T18:59:55.301Z,101313.72
2022-07-26T19:02:21.841Z,101312.47
2022-07-26T19:04:48.339Z,101311.75
2022-07-26T19:07:14.837Z,101321.34
2022-07-26T19:09:41.674Z,101316.06
2022-07-26T19:12:08.607Z,101324.75
2022-07-26T19:14:35.143Z,101325.00
2022-07-26T19:17:01.744Z,101334.50
2022-07-26T19:19:28.351Z,101323.13
2022-07-26T19:21:55.192Z,101327.41
2022-07-26T19:24:21.679Z,101338.91
2022-07-26T19:26:48.193Z,101328.34
2022-07-26T19:29:15.003Z,101333.59
2022-07-26T19:31:46.032Z,101336.63
2022-07-26T19:34:15.925Z,101336.69
2022-07-26T19:36:42.657Z,101339.69
2022-07-26T19:39:09.780Z,101331.16
2022-07-26T19:41:37.119Z,101337.28
2022-07-26T19:44:03.874Z,101345.03
2022-07-26T19:46:30.521Z,101345.06
2022-07-26T19:48:57.331Z,101338.16
2022-07-26T19:51:24.066Z,101341.66
2022-07-26T19:53:50.700Z,101344.25
2022-07-26T19:56:17.302Z,101340.69
2022-07-26T19:58:46.104Z,101344.22
2022-07-26T20:01:12.961Z,101344.25
2022-07-26T20:03:39.476Z,101347.72
2022-07-26T20:06:06.591Z,101338.19
2022-07-26T20:08:33.767Z,101342.56
2022-07-26T20:11:00.992Z,101341.47
2022-07-26T20:13:28.126Z,101336.41
2022-07-26T20:15:54.651Z,101342.53
2022-07-26T20:18:25.025Z,101343.34
2022-07-26T20:20:56.205Z,101346.78
2022-07-26T20:23:23.901Z,101344.31
2022-07-26T20:25:50.653Z,101352.19
2022-07-26T20:28:17.312Z,101356.59
2022-07-26T20:30:43.911Z,101355.69
2022-07-26T20:33:10.428Z,101341.63
2022-07-26T20:35:36.993Z,101345.16
2022-07-26T20:38:03.690Z,101355.53
2022-07-26T20:40:30.541Z,101349.47
2022-07-26T20:42:58.025Z,101352.91
2022-07-26T20:45:25.183Z,101360.84
2022-07-26T20:47:52.837Z,101364.38
2022-07-26T20:50:19.580Z,101360.06
2022-07-26T20:52:47.328Z,101357.50
2022-07-26T20:55:15.374Z,101363.63
2022-07-26T20:57:41.983Z,101368.91
2022-07-26T21:00:11.654Z,101370.59
2022-07-26T21:02:38.229Z,101370.63
2022-07-26T21:05:06.126Z,101368.03
2022-07-26T21:07:58.498Z,101368.03
2022-07-26T21:10:20.387Z,101366.28
2022-07-26T21:12:49.238Z,101366.28
2022-07-26T21:15:16.954Z,101362.75
2022-07-26T21:17:43.687Z,101360.16
2022-07-26T21:20:10.534Z,101372.41
2022-07-26T21:22:38.057Z,101367.13
2022-07-26T21:25:06.593Z,101375.06
2022-07-26T21:27:33.158Z,101374.16
2022-07-26T21:30:01.053Z,101369.78
2022-07-26T21:32:31.498Z,101381.19
2022-07-26T21:34:58.928Z,101377.69
2022-07-26T21:37:25.805Z,101379.41
2022-07-26T21:39:52.314Z,101385.53
2022-07-26T21:42:18.906Z,101373.28
2022-07-26T21:44:45.403Z,101384.59
2022-07-26T21:47:12.253Z,101382.88
2022-07-26T21:49:38.754Z,101381.19
2022-07-26T21:52:06.223Z,101379.41
2022-07-26T21:54:32.774Z,101373.28
2022-07-26T21:56:59.320Z,101372.41
2022-07-26T21:59:25.855Z,101381.16
2022-07-26T22:01:52.365Z,101378.56
2022-07-26T22:04:18.894Z,101383.81
2022-07-26T22:06:45.468Z,101377.69
2022-07-26T22:09:12.377Z,101386.44
2022-07-26T22:11:39.079Z,101388.19
2022-07-26T22:14:08.301Z,101390.75
2022-07-26T22:16:35.297Z,101396.06
2022-07-26T22:19:02.417Z,101398.72
2022-07-26T22:21:29.157Z,101396.03
2022-07-26T22:23:55.688Z,101386.44
2022-07-26T22:26:26.179Z,101389.03
2022-07-26T22:28:52.931Z,101370.66
2022-07-26T22:31:19.551Z,101375.91
2022-07-26T22:33:46.098Z,101372.41
2022-07-26T22:36:12.606Z,101368.00
2022-07-26T22:38:39.102Z,101370.66
2022-07-26T22:41:05.630Z,101369.78
2022-07-26T22:43:32.120Z,101371.53
2022-07-26T22:45:58.706Z,101369.78
2022-07-26T22:48:25.293Z,101371.56
2022-07-26T22:50:51.872Z,101354.00
2022-07-26T22:53:18.390Z,101364.50
2022-07-26T22:55:44.907Z,101364.53
2022-07-26T22:58:11.423Z,101358.31
2022-07-26T23:00:38.108Z,101359.25
2022-07-26T23:03:04.998Z,101359.28
2022-07-26T23:05:46.186Z,101362.75
2022-07-26T23:08:45.091Z,101353.13
2022-07-26T23:11:01.052Z,101360.16
2022-07-26T23:13:27.522Z,101348.56
2022-07-26T23:15:59.678Z,101364.50
2022-07-26T23:18:27.291Z,101361.81
2022-07-26T23:20:53.817Z,101367.84
2022-07-26T23:23:20.281Z,101364.22
2022-07-26T23:25:47.035Z,101361.69
2022-07-26T23:28:35.598Z,101373.28
2022-07-26T23:31:00.730Z,101383.75
2022-07-26T23:33:53.158Z,101377.59
2022-07-26T23:36:13.866Z,101379.16
2022-07-26T23:38:40.346Z,101374.81
2022-07-26T23:41:06.904Z,101368.84
2022-07-26T23:43:33.388Z,101375.78
2022-07-26T23:45:59.936Z,101380.25
2022-07-26T23:48:26.454Z,101375.00
2022-07-26T23:50:52.946Z,101370.56
2022-07-26T23:53:19.414Z,101373.28
2022-07-26T23:55:53.319Z,101377.66
2022-07-26T23:58:19.834Z,101368.00
